sensor_id;sensor_type;location;lat;lon;timestamp;P1;durP1;ratioP1;P2;durP2;ratioP2
57113;SDS011;42994;51.606;9.988;2023-05-28T00:00:54;13.10;;;5.20;;
57113;SDS011;42994;51.606;9.988;2023-05-28T00:03:22;9.32;;;4.78;;
57113;SDS011;42994;51.606;9.988;2023-05-28T00:05:49;7.00;;;4.65;;
57113;SDS011;42994;51.606;9.988;2023-05-28T00:08:15;8.73;;;4.75;;
57113;SDS011;42994;51.606;9.988;2023-05-28T00:10:42;10.90;;;5.43;;
57113;SDS011;42994;51.606;9.988;2023-05-28T00:13:09;11.68;;;4.78;;
57113;SDS011;42994;51.606;9.988;2023-05-28T00:15:37;5.88;;;4.80;;
57113;SDS011;42994;51.606;9.988;2023-05-28T00:18:04;8.27;;;4.75;;
57113;SDS011;42994;51.606;9.988;2023-05-28T00:20:31;10.15;;;4.53;;
57113;SDS011;42994;51.606;9.988;2023-05-28T00:22:57;10.13;;;5.05;;
57113;SDS011;42994;51.606;9.988;2023-05-28T00:25:24;11.75;;;5.38;;
57113;SDS011;42994;51.606;9.988;2023-05-28T00:27:51;8.43;;;5.07;;
57113;SDS011;42994;51.606;9.988;2023-05-28T00:30:18;10.60;;;4.65;;
57113;SDS011;42994;51.606;9.988;2023-05-28T00:32:47;5.68;;;4.53;;
57113;SDS011;42994;51.606;9.988;2023-05-28T00:35:14;5.43;;;3.92;;
57113;SDS011;42994;51.606;9.988;2023-05-28T00:37:41;7.05;;;5.05;;
57113;SDS011;42994;51.606;9.988;2023-05-28T00:40:08;8.18;;;4.25;;
57113;SDS011;42994;51.606;9.988;2023-05-28T00:42:35;6.53;;;4.18;;
57113;SDS011;42994;51.606;9.988;2023-05-28T00:45:02;6.80;;;5.00;;
57113;SDS011;42994;51.606;9.988;2023-05-28T00:47:28;9.65;;;4.57;;
57113;SDS011;42994;51.606;9.988;2023-05-28T00:49:57;7.38;;;4.53;;
57113;SDS011;42994;51.606;9.988;2023-05-28T00:52:25;9.85;;;5.55;;
57113;SDS011;42994;51.606;9.988;2023-05-28T00:54:52;6.22;;;4.47;;
57113;SDS011;42994;51.606;9.988;2023-05-28T00:57:21;9.18;;;4.50;;
57113;SDS011;42994;51.606;9.988;2023-05-28T00:59:48;8.32;;;4.68;;
57113;SDS011;42994;51.606;9.988;2023-05-28T01:02:16;6.53;;;4.32;;
57113;SDS011;42994;51.606;9.988;2023-05-28T01:04:43;8.60;;;4.72;;
57113;SDS011;42994;51.606;9.988;2023-05-28T01:07:11;9.48;;;4.90;;
57113;SDS011;42994;51.606;9.988;2023-05-28T01:09:39;7.50;;;4.57;;
57113;SDS011;42994;51.606;9.988;2023-05-28T01:12:06;10.05;;;4.72;;
57113;SDS011;42994;51.606;9.988;2023-05-28T01:14:35;7.00;;;4.60;;
57113;SDS011;42994;51.606;9.988;2023-05-28T01:17:03;7.47;;;4.30;;
57113;SDS011;42994;51.606;9.988;2023-05-28T01:19:31;7.57;;;4.63;;
57113;SDS011;42994;51.606;9.988;2023-05-28T01:22:01;7.82;;;4.40;;
57113;SDS011;42994;51.606;9.988;2023-05-28T01:24:32;6.68;;;4.25;;
57113;SDS011;42994;51.606;9.988;2023-05-28T01:27:01;5.72;;;4.38;;
57113;SDS011;42994;51.606;9.988;2023-05-28T01:29:28;8.07;;;4.25;;
57113;SDS011;42994;51.606;9.988;2023-05-28T01:31:55;8.68;;;5.10;;
57113;SDS011;42994;51.606;9.988;2023-05-28T01:34:22;7.80;;;4.78;;
57113;SDS011;42994;51.606;9.988;2023-05-28T01:36:51;7.20;;;4.38;;
57113;SDS011;42994;51.606;9.988;2023-05-28T01:39:21;6.93;;;4.63;;
57113;SDS011;42994;51.606;9.988;2023-05-28T01:41:53;7.82;;;4.80;;
57113;SDS011;42994;51.606;9.988;2023-05-28T01:44:21;6.95;;;4.05;;
57113;SDS011;42994;51.606;9.988;2023-05-28T01:46:49;7.78;;;5.00;;
57113;SDS011;42994;51.606;9.988;2023-05-28T01:49:18;8.35;;;4.00;;
57113;SDS011;42994;51.606;9.988;2023-05-28T01:51:46;8.98;;;4.68;;
57113;SDS011;42994;51.606;9.988;2023-05-28T01:54:12;6.93;;;3.92;;
57113;SDS011;42994;51.606;9.988;2023-05-28T01:56:39;9.93;;;4.43;;
57113;SDS011;42994;51.606;9.988;2023-05-28T01:59:07;4.25;;;3.80;;
57113;SDS011;42994;51.606;9.988;2023-05-28T02:01:35;6.35;;;4.60;;
57113;SDS011;42994;51.606;9.988;2023-05-28T02:04:05;7.35;;;3.85;;
57113;SDS011;42994;51.606;9.988;2023-05-28T02:06:35;6.88;;;5.13;;
57113;SDS011;42994;51.606;9.988;2023-05-28T02:09:02;9.75;;;4.20;;
57113;SDS011;42994;51.606;9.988;2023-05-28T02:11:29;7.85;;;3.97;;
57113;SDS011;42994;51.606;9.988;2023-05-28T02:13:56;8.07;;;4.55;;
57113;SDS011;42994;51.606;9.988;2023-05-28T02:16:25;8.60;;;4.30;;
57113;SDS011;42994;51.606;9.988;2023-05-28T02:18:53;10.68;;;3.80;;
57113;SDS011;42994;51.606;9.988;2023-05-28T02:21:21;6.63;;;3.97;;
57113;SDS011;42994;51.606;9.988;2023-05-28T02:23:48;5.40;;;3.92;;
57113;SDS011;42994;51.606;9.988;2023-05-28T02:26:16;5.68;;;3.35;;
57113;SDS011;42994;51.606;9.988;2023-05-28T02:28:43;12.40;;;4.10;;
57113;SDS011;42994;51.606;9.988;2023-05-28T02:31:10;5.68;;;3.88;;
57113;SDS011;42994;51.606;9.988;2023-05-28T02:33:40;11.05;;;3.83;;
57113;SDS011;42994;51.606;9.988;2023-05-28T02:36:08;6.22;;;3.22;;
57113;SDS011;42994;51.606;9.988;2023-05-28T02:38:37;5.47;;;3.55;;
57113;SDS011;42994;51.606;9.988;2023-05-28T02:41:06;4.35;;;3.63;;
57113;SDS011;42994;51.606;9.988;2023-05-28T02:43:34;10.57;;;4.30;;
57113;SDS011;42994;51.606;9.988;2023-05-28T02:46:04;6.47;;;3.28;;
57113;SDS011;42994;51.606;9.988;2023-05-28T02:48:32;8.23;;;3.70;;
57113;SDS011;42994;51.606;9.988;2023-05-28T02:51:01;7.28;;;3.92;;
57113;SDS011;42994;51.606;9.988;2023-05-28T02:53:56;6.03;;;3.75;;
57113;SDS011;42994;51.606;9.988;2023-05-28T02:56:23;11.43;;;4.10;;
57113;SDS011;42994;51.606;9.988;2023-05-28T02:58:50;6.95;;;3.35;;
57113;SDS011;42994;51.606;9.988;2023-05-28T03:01:18;7.65;;;4.45;;
57113;SDS011;42994;51.606;9.988;2023-05-28T03:03:45;8.13;;;3.90;;
57113;SDS011;42994;51.606;9.988;2023-05-28T03:06:13;6.80;;;4.03;;
57113;SDS011;42994;51.606;9.988;2023-05-28T03:08:47;6.07;;;3.13;;
57113;SDS011;42994;51.606;9.988;2023-05-28T03:11:14;5.90;;;3.65;;
57113;SDS011;42994;51.606;9.988;2023-05-28T03:13:40;7.55;;;3.75;;
57113;SDS011;42994;51.606;9.988;2023-05-28T03:16:07;7.13;;;3.75;;
57113;SDS011;42994;51.606;9.988;2023-05-28T03:18:35;6.13;;;3.67;;
57113;SDS011;42994;51.606;9.988;2023-05-28T03:21:03;6.68;;;3.70;;
57113;SDS011;42994;51.606;9.988;2023-05-28T03:23:32;6.35;;;3.63;;
57113;SDS011;42994;51.606;9.988;2023-05-28T03:26:05;5.68;;;3.45;;
57113;SDS011;42994;51.606;9.988;2023-05-28T03:28:32;4.45;;;3.08;;
57113;SDS011;42994;51.606;9.988;2023-05-28T03:31:25;7.70;;;3.58;;
57113;SDS011;42994;51.606;9.988;2023-05-28T03:33:55;6.03;;;3.65;;
57113;SDS011;42994;51.606;9.988;2023-05-28T03:36:22;5.07;;;3.38;;
57113;SDS011;42994;51.606;9.988;2023-05-28T03:38:52;15.30;;;4.43;;
57113;SDS011;42994;51.606;9.988;2023-05-28T03:41:21;4.22;;;3.40;;
57113;SDS011;42994;51.606;9.988;2023-05-28T03:43:48;5.28;;;3.38;;
57113;SDS011;42994;51.606;9.988;2023-05-28T03:46:15;8.60;;;3.00;;
57113;SDS011;42994;51.606;9.988;2023-05-28T03:48:42;9.43;;;3.40;;
57113;SDS011;42994;51.606;9.988;2023-05-28T03:51:09;12.63;;;3.85;;
57113;SDS011;42994;51.606;9.988;2023-05-28T03:53:36;4.45;;;3.30;;
57113;SDS011;42994;51.606;9.988;2023-05-28T03:56:05;8.43;;;3.80;;
57113;SDS011;42994;51.606;9.988;2023-05-28T03:58:32;5.43;;;3.47;;
57113;SDS011;42994;51.606;9.988;2023-05-28T04:00:59;7.68;;;4.07;;
57113;SDS011;42994;51.606;9.988;2023-05-28T04:03:26;9.18;;;3.70;;
57113;SDS011;42994;51.606;9.988;2023-05-28T04:05:53;7.65;;;3.65;;
57113;SDS011;42994;51.606;9.988;2023-05-28T04:08:21;7.22;;;4.40;;
57113;SDS011;42994;51.606;9.988;2023-05-28T04:10:48;5.30;;;3.25;;
57113;SDS011;42994;51.606;9.988;2023-05-28T04:13:16;8.35;;;3.08;;
57113;SDS011;42994;51.606;9.988;2023-05-28T04:15:43;4.53;;;3.03;;
57113;SDS011;42994;51.606;9.988;2023-05-28T04:18:10;9.23;;;3.25;;
57113;SDS011;42994;51.606;9.988;2023-05-28T04:20:37;6.50;;;3.78;;
57113;SDS011;42994;51.606;9.988;2023-05-28T04:23:04;5.72;;;3.60;;
57113;SDS011;42994;51.606;9.988;2023-05-28T04:25:31;7.22;;;4.07;;
57113;SDS011;42994;51.606;9.988;2023-05-28T04:27:58;5.70;;;3.90;;
57113;SDS011;42994;51.606;9.988;2023-05-28T04:30:27;7.63;;;3.58;;
57113;SDS011;42994;51.606;9.988;2023-05-28T04:32:54;5.97;;;4.28;;
57113;SDS011;42994;51.606;9.988;2023-05-28T04:35:22;7.15;;;4.10;;
57113;SDS011;42994;51.606;9.988;2023-05-28T04:37:48;4.78;;;3.50;;
57113;SDS011;42994;51.606;9.988;2023-05-28T04:40:18;8.02;;;3.63;;
57113;SDS011;42994;51.606;9.988;2023-05-28T04:42:47;5.03;;;3.33;;
57113;SDS011;42994;51.606;9.988;2023-05-28T04:45:13;8.20;;;4.13;;
57113;SDS011;42994;51.606;9.988;2023-05-28T04:47:45;5.75;;;3.72;;
57113;SDS011;42994;51.606;9.988;2023-05-28T04:50:12;7.03;;;3.58;;
57113;SDS011;42994;51.606;9.988;2023-05-28T04:52:38;6.72;;;3.92;;
57113;SDS011;42994;51.606;9.988;2023-05-28T04:55:05;6.50;;;4.10;;
57113;SDS011;42994;51.606;9.988;2023-05-28T04:57:33;7.57;;;4.07;;
57113;SDS011;42994;51.606;9.988;2023-05-28T05:00:01;6.63;;;3.92;;
57113;SDS011;42994;51.606;9.988;2023-05-28T05:02:29;9.85;;;4.25;;
57113;SDS011;42994;51.606;9.988;2023-05-28T05:04:57;5.95;;;3.88;;
57113;SDS011;42994;51.606;9.988;2023-05-28T05:07:24;5.95;;;3.55;;
57113;SDS011;42994;51.606;9.988;2023-05-28T05:09:51;10.40;;;5.10;;
57113;SDS011;42994;51.606;9.988;2023-05-28T05:12:18;12.30;;;5.50;;
57113;SDS011;42994;51.606;9.988;2023-05-28T05:14:46;14.43;;;6.28;;
57113;SDS011;42994;51.606;9.988;2023-05-28T05:17:13;10.32;;;5.55;;
57113;SDS011;42994;51.606;9.988;2023-05-28T05:19:40;12.18;;;5.70;;
57113;SDS011;42994;51.606;9.988;2023-05-28T05:22:09;13.20;;;6.32;;
57113;SDS011;42994;51.606;9.988;2023-05-28T05:24:37;10.77;;;5.50;;
57113;SDS011;42994;51.606;9.988;2023-05-28T05:27:04;14.23;;;5.15;;
57113;SDS011;42994;51.606;9.988;2023-05-28T05:29:31;10.95;;;5.35;;
57113;SDS011;42994;51.606;9.988;2023-05-28T05:31:58;12.55;;;5.38;;
57113;SDS011;42994;51.606;9.988;2023-05-28T05:34:25;13.30;;;4.57;;
57113;SDS011;42994;51.606;9.988;2023-05-28T05:37:13;14.68;;;4.55;;
57113;SDS011;42994;51.606;9.988;2023-05-28T05:39:58;7.75;;;4.18;;
57113;SDS011;42994;51.606;9.988;2023-05-28T05:42:40;8.40;;;4.75;;
57113;SDS011;42994;51.606;9.988;2023-05-28T05:45:07;7.25;;;3.63;;
57113;SDS011;42994;51.606;9.988;2023-05-28T05:47:36;11.95;;;4.30;;
57113;SDS011;42994;51.606;9.988;2023-05-28T05:50:03;11.70;;;3.75;;
57113;SDS011;42994;51.606;9.988;2023-05-28T05:52:32;8.48;;;3.38;;
57113;SDS011;42994;51.606;9.988;2023-05-28T05:55:01;10.23;;;4.30;;
57113;SDS011;42994;51.606;9.988;2023-05-28T05:57:29;11.70;;;4.47;;
57113;SDS011;42994;51.606;9.988;2023-05-28T05:59:57;12.88;;;4.30;;
57113;SDS011;42994;51.606;9.988;2023-05-28T06:02:25;11.95;;;4.20;;
57113;SDS011;42994;51.606;9.988;2023-05-28T06:04:52;9.32;;;4.38;;
57113;SDS011;42994;51.606;9.988;2023-05-28T06:07:40;11.00;;;4.07;;
57113;SDS011;42994;51.606;9.988;2023-05-28T06:10:27;8.60;;;3.97;;
57113;SDS011;42994;51.606;9.988;2023-05-28T06:12:53;9.38;;;4.15;;
57113;SDS011;42994;51.606;9.988;2023-05-28T06:15:20;6.80;;;3.63;;
57113;SDS011;42994;51.606;9.988;2023-05-28T06:17:47;9.40;;;4.20;;
57113;SDS011;42994;51.606;9.988;2023-05-28T06:20:14;6.47;;;2.90;;
57113;SDS011;42994;51.606;9.988;2023-05-28T06:22:43;7.68;;;3.13;;
57113;SDS011;42994;51.606;9.988;2023-05-28T06:25:10;8.07;;;3.35;;
57113;SDS011;42994;51.606;9.988;2023-05-28T06:27:37;7.28;;;3.20;;
57113;SDS011;42994;51.606;9.988;2023-05-28T06:30:04;7.75;;;2.53;;
57113;SDS011;42994;51.606;9.988;2023-05-28T06:32:32;4.05;;;2.25;;
57113;SDS011;42994;51.606;9.988;2023-05-28T06:34:59;3.80;;;2.47;;
57113;SDS011;42994;51.606;9.988;2023-05-28T06:37:26;6.85;;;3.65;;
57113;SDS011;42994;51.606;9.988;2023-05-28T06:39:55;5.75;;;3.00;;
57113;SDS011;42994;51.606;9.988;2023-05-28T06:42:22;6.10;;;2.33;;
57113;SDS011;42994;51.606;9.988;2023-05-28T06:45:08;7.07;;;2.70;;
57113;SDS011;42994;51.606;9.988;2023-05-28T06:47:36;9.40;;;3.03;;
57113;SDS011;42994;51.606;9.988;2023-05-28T06:50:03;5.78;;;2.65;;
57113;SDS011;42994;51.606;9.988;2023-05-28T06:52:30;7.97;;;3.00;;
57113;SDS011;42994;51.606;9.988;2023-05-28T06:54:58;4.25;;;2.22;;
57113;SDS011;42994;51.606;9.988;2023-05-28T06:57:31;6.22;;;2.50;;
57113;SDS011;42994;51.606;9.988;2023-05-28T07:00:24;3.05;;;2.30;;
57113;SDS011;42994;51.606;9.988;2023-05-28T07:02:55;5.07;;;2.10;;
57113;SDS011;42994;51.606;9.988;2023-05-28T07:05:35;5.30;;;2.25;;
57113;SDS011;42994;51.606;9.988;2023-05-28T07:08:02;5.93;;;2.58;;
57113;SDS011;42994;51.606;9.988;2023-05-28T07:10:30;4.18;;;2.65;;
57113;SDS011;42994;51.606;9.988;2023-05-28T07:12:58;5.35;;;2.60;;
57113;SDS011;42994;51.606;9.988;2023-05-28T07:15:24;6.80;;;2.30;;
57113;SDS011;42994;51.606;9.988;2023-05-28T07:17:51;5.13;;;2.50;;
57113;SDS011;42994;51.606;9.988;2023-05-28T07:20:18;3.95;;;2.63;;
57113;SDS011;42994;51.606;9.988;2023-05-28T07:22:52;4.53;;;2.65;;
57113;SDS011;42994;51.606;9.988;2023-05-28T07:25:18;6.75;;;2.65;;
57113;SDS011;42994;51.606;9.988;2023-05-28T07:27:47;6.25;;;2.65;;
57113;SDS011;42994;51.606;9.988;2023-05-28T07:30:21;4.32;;;2.40;;
57113;SDS011;42994;51.606;9.988;2023-05-28T07:32:49;3.03;;;2.08;;
57113;SDS011;42994;51.606;9.988;2023-05-28T07:35:16;6.18;;;2.88;;
57113;SDS011;42994;51.606;9.988;2023-05-28T07:37:43;7.25;;;2.40;;
57113;SDS011;42994;51.606;9.988;2023-05-28T07:40:10;6.15;;;2.92;;
57113;SDS011;42994;51.606;9.988;2023-05-28T07:42:38;6.88;;;2.40;;
57113;SDS011;42994;51.606;9.988;2023-05-28T07:45:07;5.95;;;2.58;;
57113;SDS011;42994;51.606;9.988;2023-05-28T07:47:35;4.30;;;2.30;;
57113;SDS011;42994;51.606;9.988;2023-05-28T07:50:13;3.28;;;2.53;;
57113;SDS011;42994;51.606;9.988;2023-05-28T07:52:58;6.00;;;2.30;;
57113;SDS011;42994;51.606;9.988;2023-05-28T07:55:26;5.97;;;2.28;;
57113;SDS011;42994;51.606;9.988;2023-05-28T07:57:53;5.72;;;2.97;;
57113;SDS011;42994;51.606;9.988;2023-05-28T08:00:22;5.75;;;2.72;;
57113;SDS011;42994;51.606;9.988;2023-05-28T08:02:52;7.07;;;2.07;;
57113;SDS011;42994;51.606;9.988;2023-05-28T08:05:28;6.13;;;2.70;;
57113;SDS011;42994;51.606;9.988;2023-05-28T08:07:56;3.25;;;2.10;;
57113;SDS011;42994;51.606;9.988;2023-05-28T08:10:23;6.55;;;2.35;;
57113;SDS011;42994;51.606;9.988;2023-05-28T08:12:50;7.28;;;2.38;;
57113;SDS011;42994;51.606;9.988;2023-05-28T08:15:18;4.80;;;2.70;;
57113;SDS011;42994;51.606;9.988;2023-05-28T08:17:47;3.67;;;2.40;;
57113;SDS011;42994;51.606;9.988;2023-05-28T08:20:16;6.68;;;2.70;;
57113;SDS011;42994;51.606;9.988;2023-05-28T08:22:52;5.95;;;2.47;;
57113;SDS011;42994;51.606;9.988;2023-05-28T08:25:19;11.32;;;2.90;;
57113;SDS011;42994;51.606;9.988;2023-05-28T08:27:50;6.85;;;2.72;;
57113;SDS011;42994;51.606;9.988;2023-05-28T08:30:17;8.85;;;2.80;;
57113;SDS011;42994;51.606;9.988;2023-05-28T08:32:55;4.57;;;2.70;;
57113;SDS011;42994;51.606;9.988;2023-05-28T08:35:23;3.67;;;2.42;;
57113;SDS011;42994;51.606;9.988;2023-05-28T08:37:51;5.07;;;2.65;;
57113;SDS011;42994;51.606;9.988;2023-05-28T08:40:27;7.40;;;2.65;;
57113;SDS011;42994;51.606;9.988;2023-05-28T08:42:56;5.28;;;2.50;;
57113;SDS011;42994;51.606;9.988;2023-05-28T08:45:23;5.18;;;2.47;;
57113;SDS011;42994;51.606;9.988;2023-05-28T08:47:52;6.53;;;2.70;;
57113;SDS011;42994;51.606;9.988;2023-05-28T08:50:23;6.32;;;3.13;;
57113;SDS011;42994;51.606;9.988;2023-05-28T08:53:10;6.55;;;2.67;;
57113;SDS011;42994;51.606;9.988;2023-05-28T08:55:43;5.18;;;2.63;;
57113;SDS011;42994;51.606;9.988;2023-05-28T08:58:16;4.72;;;2.63;;
57113;SDS011;42994;51.606;9.988;2023-05-28T09:00:45;7.30;;;2.70;;
57113;SDS011;42994;51.606;9.988;2023-05-28T09:03:28;4.20;;;2.42;;
57113;SDS011;42994;51.606;9.988;2023-05-28T09:06:04;6.28;;;2.45;;
57113;SDS011;42994;51.606;9.988;2023-05-28T09:08:32;3.45;;;2.40;;
57113;SDS011;42994;51.606;9.988;2023-05-28T09:11:08;9.80;;;2.67;;
57113;SDS011;42994;51.606;9.988;2023-05-28T09:13:39;5.90;;;2.55;;
57113;SDS011;42994;51.606;9.988;2023-05-28T09:16:06;6.87;;;2.50;;
57113;SDS011;42994;51.606;9.988;2023-05-28T09:18:33;4.72;;;2.50;;
57113;SDS011;42994;51.606;9.988;2023-05-28T09:21:04;3.30;;;2.30;;
57113;SDS011;42994;51.606;9.988;2023-05-28T09:23:33;6.10;;;2.35;;
57113;SDS011;42994;51.606;9.988;2023-05-28T09:26:09;5.43;;;2.58;;
57113;SDS011;42994;51.606;9.988;2023-05-28T09:28:48;4.85;;;2.78;;
57113;SDS011;42994;51.606;9.988;2023-05-28T09:31:17;7.15;;;3.22;;
57113;SDS011;42994;51.606;9.988;2023-05-28T09:33:44;3.17;;;2.28;;
57113;SDS011;42994;51.606;9.988;2023-05-28T09:36:15;4.88;;;2.10;;
57113;SDS011;42994;51.606;9.988;2023-05-28T09:41:19;3.55;;;2.10;;
57113;SDS011;42994;51.606;9.988;2023-05-28T09:43:46;7.57;;;2.40;;
57113;SDS011;42994;51.606;9.988;2023-05-28T09:46:21;5.70;;;2.05;;
57113;SDS011;42994;51.606;9.988;2023-05-28T09:48:47;5.68;;;2.15;;
57113;SDS011;42994;51.606;9.988;2023-05-28T09:51:15;6.90;;;2.55;;
57113;SDS011;42994;51.606;9.988;2023-05-28T09:53:43;3.42;;;1.95;;
57113;SDS011;42994;51.606;9.988;2023-05-28T09:56:10;3.42;;;2.58;;
57113;SDS011;42994;51.606;9.988;2023-05-28T09:58:38;4.18;;;2.28;;
57113;SDS011;42994;51.606;9.988;2023-05-28T10:01:11;4.88;;;2.00;;
57113;SDS011;42994;51.606;9.988;2023-05-28T10:03:42;6.78;;;2.78;;
57113;SDS011;42994;51.606;9.988;2023-05-28T10:06:15;4.63;;;2.45;;
57113;SDS011;42994;51.606;9.988;2023-05-28T10:08:46;2.92;;;2.20;;
57113;SDS011;42994;51.606;9.988;2023-05-28T10:11:22;4.80;;;2.60;;
57113;SDS011;42994;51.606;9.988;2023-05-28T10:13:51;6.57;;;2.47;;
57113;SDS011;42994;51.606;9.988;2023-05-28T10:16:18;5.05;;;2.83;;
57113;SDS011;42994;51.606;9.988;2023-05-28T10:18:45;3.88;;;2.38;;
57113;SDS011;42994;51.606;9.988;2023-05-28T10:21:12;3.65;;;2.53;;
57113;SDS011;42994;51.606;9.988;2023-05-28T10:23:41;4.50;;;2.58;;
57113;SDS011;42994;51.606;9.988;2023-05-28T10:26:10;5.82;;;2.45;;
57113;SDS011;42994;51.606;9.988;2023-05-28T10:28:37;6.28;;;2.22;;
57113;SDS011;42994;51.606;9.988;2023-05-28T10:31:04;4.72;;;2.20;;
57113;SDS011;42994;51.606;9.988;2023-05-28T10:33:32;6.78;;;2.65;;
57113;SDS011;42994;51.606;9.988;2023-05-28T10:36:04;3.75;;;2.17;;
57113;SDS011;42994;51.606;9.988;2023-05-28T10:38:42;5.13;;;2.30;;
57113;SDS011;42994;51.606;9.988;2023-05-28T10:41:10;3.25;;;2.05;;
57113;SDS011;42994;51.606;9.988;2023-05-28T10:43:41;5.53;;;2.38;;
57113;SDS011;42994;51.606;9.988;2023-05-28T10:46:12;3.08;;;2.28;;
57113;SDS011;42994;51.606;9.988;2023-05-28T10:48:41;3.85;;;2.50;;
57113;SDS011;42994;51.606;9.988;2023-05-28T10:51:42;2.90;;;2.17;;
57113;SDS011;42994;51.606;9.988;2023-05-28T10:54:20;4.22;;;2.65;;
57113;SDS011;42994;51.606;9.988;2023-05-28T10:57:10;5.45;;;2.55;;
57113;SDS011;42994;51.606;9.988;2023-05-28T10:59:45;5.43;;;2.50;;
57113;SDS011;42994;51.606;9.988;2023-05-28T11:02:16;4.38;;;2.63;;
57113;SDS011;42994;51.606;9.988;2023-05-28T11:04:44;5.32;;;2.47;;
57113;SDS011;42994;51.606;9.988;2023-05-28T11:07:11;4.15;;;2.38;;
57113;SDS011;42994;51.606;9.988;2023-05-28T11:09:40;4.28;;;2.15;;
57113;SDS011;42994;51.606;9.988;2023-05-28T11:12:07;6.10;;;2.75;;
57113;SDS011;42994;51.606;9.988;2023-05-28T11:14:34;2.85;;;2.35;;
57113;SDS011;42994;51.606;9.988;2023-05-28T11:17:05;3.58;;;2.50;;
57113;SDS011;42994;51.606;9.988;2023-05-28T11:19:38;4.30;;;2.28;;
57113;SDS011;42994;51.606;9.988;2023-05-28T11:22:09;4.53;;;2.63;;
57113;SDS011;42994;51.606;9.988;2023-05-28T11:24:51;4.57;;;2.55;;
57113;SDS011;42994;51.606;9.988;2023-05-28T11:27:20;3.65;;;2.13;;
57113;SDS011;42994;51.606;9.988;2023-05-28T11:29:47;3.83;;;2.15;;
57113;SDS011;42994;51.606;9.988;2023-05-28T11:32:17;5.57;;;2.67;;
57113;SDS011;42994;51.606;9.988;2023-05-28T11:34:44;5.72;;;2.53;;
57113;SDS011;42994;51.606;9.988;2023-05-28T11:37:13;3.55;;;2.70;;
57113;SDS011;42994;51.606;9.988;2023-05-28T11:39:47;6.38;;;2.47;;
57113;SDS011;42994;51.606;9.988;2023-05-28T11:42:15;5.20;;;2.03;;
57113;SDS011;42994;51.606;9.988;2023-05-28T11:44:45;6.05;;;2.83;;
57113;SDS011;42994;51.606;9.988;2023-05-28T11:47:12;5.78;;;2.38;;
57113;SDS011;42994;51.606;9.988;2023-05-28T11:49:40;5.78;;;2.22;;
57113;SDS011;42994;51.606;9.988;2023-05-28T11:52:09;8.90;;;2.78;;
57113;SDS011;42994;51.606;9.988;2023-05-28T11:54:37;4.88;;;2.55;;
57113;SDS011;42994;51.606;9.988;2023-05-28T11:57:04;4.40;;;2.33;;
57113;SDS011;42994;51.606;9.988;2023-05-28T11:59:33;5.60;;;2.60;;
57113;SDS011;42994;51.606;9.988;2023-05-28T12:02:11;4.60;;;2.45;;
57113;SDS011;42994;51.606;9.988;2023-05-28T12:04:38;3.50;;;2.40;;
57113;SDS011;42994;51.606;9.988;2023-05-28T12:07:05;3.55;;;2.28;;
57113;SDS011;42994;51.606;9.988;2023-05-28T12:09:32;4.80;;;2.03;;
57113;SDS011;42994;51.606;9.988;2023-05-28T12:12:09;8.77;;;2.60;;
57113;SDS011;42994;51.606;9.988;2023-05-28T12:14:38;5.10;;;2.20;;
57113;SDS011;42994;51.606;9.988;2023-05-28T12:17:05;4.22;;;2.38;;
57113;SDS011;42994;51.606;9.988;2023-05-28T12:19:34;3.65;;;2.20;;
57113;SDS011;42994;51.606;9.988;2023-05-28T12:22:01;11.60;;;2.78;;
57113;SDS011;42994;51.606;9.988;2023-05-28T12:24:38;2.92;;;2.58;;
57113;SDS011;42994;51.606;9.988;2023-05-28T12:27:04;5.10;;;2.53;;
57113;SDS011;42994;51.606;9.988;2023-05-28T12:29:32;3.78;;;2.20;;
57113;SDS011;42994;51.606;9.988;2023-05-28T12:32:00;3.72;;;2.30;;
57113;SDS011;42994;51.606;9.988;2023-05-28T12:34:27;6.32;;;1.88;;
57113;SDS011;42994;51.606;9.988;2023-05-28T12:36:53;4.18;;;2.10;;
57113;SDS011;42994;51.606;9.988;2023-05-28T12:39:21;5.43;;;2.20;;
57113;SDS011;42994;51.606;9.988;2023-05-28T12:41:47;3.85;;;2.30;;
57113;SDS011;42994;51.606;9.988;2023-05-28T12:44:14;4.57;;;2.28;;
57113;SDS011;42994;51.606;9.988;2023-05-28T12:46:41;5.78;;;2.50;;
57113;SDS011;42994;51.606;9.988;2023-05-28T12:49:10;2.83;;;2.28;;
57113;SDS011;42994;51.606;9.988;2023-05-28T12:51:36;3.70;;;2.20;;
57113;SDS011;42994;51.606;9.988;2023-05-28T12:54:04;5.13;;;2.55;;
57113;SDS011;42994;51.606;9.988;2023-05-28T12:56:32;5.38;;;2.47;;
57113;SDS011;42994;51.606;9.988;2023-05-28T12:58:58;2.72;;;2.05;;
57113;SDS011;42994;51.606;9.988;2023-05-28T13:01:25;3.00;;;2.10;;
57113;SDS011;42994;51.606;9.988;2023-05-28T13:03:52;4.18;;;2.13;;
57113;SDS011;42994;51.606;9.988;2023-05-28T13:06:20;2.83;;;2.00;;
57113;SDS011;42994;51.606;9.988;2023-05-28T13:08:47;3.60;;;2.13;;
57113;SDS011;42994;51.606;9.988;2023-05-28T13:11:15;2.95;;;2.28;;
57113;SDS011;42994;51.606;9.988;2023-05-28T13:13:42;5.72;;;1.98;;
57113;SDS011;42994;51.606;9.988;2023-05-28T13:16:08;4.68;;;2.47;;
57113;SDS011;42994;51.606;9.988;2023-05-28T13:18:35;2.33;;;2.00;;
57113;SDS011;42994;51.606;9.988;2023-05-28T13:21:02;6.55;;;2.47;;
57113;SDS011;42994;51.606;9.988;2023-05-28T13:23:30;3.85;;;2.25;;
57113;SDS011;42994;51.606;9.988;2023-05-28T13:25:56;4.65;;;2.55;;
57113;SDS011;42994;51.606;9.988;2023-05-28T13:28:23;4.55;;;1.88;;
57113;SDS011;42994;51.606;9.988;2023-05-28T13:30:50;4.82;;;2.25;;
57113;SDS011;42994;51.606;9.988;2023-05-28T13:33:17;2.63;;;2.05;;
57113;SDS011;42994;51.606;9.988;2023-05-28T13:35:43;4.25;;;2.05;;
57113;SDS011;42994;51.606;9.988;2023-05-28T13:38:10;4.60;;;1.80;;
57113;SDS011;42994;51.606;9.988;2023-05-28T13:40:38;2.63;;;2.20;;
57113;SDS011;42994;51.606;9.988;2023-05-28T13:43:05;2.92;;;1.95;;
57113;SDS011;42994;51.606;9.988;2023-05-28T13:45:33;3.20;;;2.00;;
57113;SDS011;42994;51.606;9.988;2023-05-28T13:47:59;3.65;;;1.80;;
57113;SDS011;42994;51.606;9.988;2023-05-28T13:50:27;2.67;;;2.00;;
57113;SDS011;42994;51.606;9.988;2023-05-28T13:52:55;3.88;;;2.70;;
57113;SDS011;42994;51.606;9.988;2023-05-28T13:55:22;3.28;;;2.22;;
57113;SDS011;42994;51.606;9.988;2023-05-28T13:57:50;4.38;;;1.80;;
57113;SDS011;42994;51.606;9.988;2023-05-28T14:00:17;5.30;;;2.30;;
57113;SDS011;42994;51.606;9.988;2023-05-28T14:02:46;4.55;;;2.47;;
57113;SDS011;42994;51.606;9.988;2023-05-28T14:05:13;5.10;;;2.60;;
57113;SDS011;42994;51.606;9.988;2023-05-28T14:07:40;6.55;;;2.70;;
57113;SDS011;42994;51.606;9.988;2023-05-28T14:10:07;2.13;;;1.83;;
57113;SDS011;42994;51.606;9.988;2023-05-28T14:12:34;3.55;;;1.98;;
57113;SDS011;42994;51.606;9.988;2023-05-28T14:15:02;3.85;;;2.05;;
57113;SDS011;42994;51.606;9.988;2023-05-28T14:17:29;5.07;;;1.77;;
57113;SDS011;42994;51.606;9.988;2023-05-28T14:19:56;3.85;;;2.30;;
57113;SDS011;42994;51.606;9.988;2023-05-28T14:22:22;3.22;;;2.20;;
57113;SDS011;42994;51.606;9.988;2023-05-28T14:24:49;3.00;;;2.05;;
57113;SDS011;42994;51.606;9.988;2023-05-28T14:27:16;2.35;;;1.90;;
57113;SDS011;42994;51.606;9.988;2023-05-28T14:29:42;4.65;;;2.08;;
57113;SDS011;42994;51.606;9.988;2023-05-28T14:32:10;4.43;;;2.33;;
57113;SDS011;42994;51.606;9.988;2023-05-28T14:34:37;5.32;;;2.13;;
57113;SDS011;42994;51.606;9.988;2023-05-28T14:37:04;4.03;;;2.13;;
57113;SDS011;42994;51.606;9.988;2023-05-28T14:39:30;4.75;;;2.45;;
57113;SDS011;42994;51.606;9.988;2023-05-28T14:41:57;4.90;;;2.42;;
57113;SDS011;42994;51.606;9.988;2023-05-28T14:44:23;5.03;;;2.38;;
57113;SDS011;42994;51.606;9.988;2023-05-28T14:46:50;4.85;;;2.65;;
57113;SDS011;42994;51.606;9.988;2023-05-28T14:49:18;2.83;;;2.30;;
57113;SDS011;42994;51.606;9.988;2023-05-28T14:51:45;4.05;;;2.13;;
57113;SDS011;42994;51.606;9.988;2023-05-28T14:54:11;3.28;;;2.40;;
57113;SDS011;42994;51.606;9.988;2023-05-28T14:56:38;4.07;;;2.40;;
57113;SDS011;42994;51.606;9.988;2023-05-28T14:59:05;3.30;;;2.10;;